Tiempo atmosférico en la estación meteorológica de Jávea/ Xàbia, Alacant/Alicante (15 m.)



Fecha
DESCASC
Temp. máxima en grados centígrados (hora)
DESCASC
Temp. mínima en grados centígrados (hora)
DESCASC
Temp. media en grados centígrados
DESCASC
Racha de viento máxima en m/sg (hora)
DESCASC
Velocidad máxima media en intervalos de 10 minutos(hora)
DESCASC
Precipitaciones diarias en mm
DESCASC
Precipitaciones de 00:00 a 06:00 en mm
DESCASC
Precipitaciones de 06:00 a 12:00 en mm
DESCASC
Precipitaciones de 12:00 a 18:00 en mm
DESCASC
Precipitaciones de 18:00 a 24:00 en mm
DESCASC
28-02-2021 17.6 (13:10) 9 (01:30) 13.3 8.89 (21:50) 5.28 (20:50) 0 0 0 0 0
27-02-2021 16.8 (13:20) 8.2 (21:00) 12.5 6.39 (13:20) 3.61 (14:40) 0 0 0 0 0
26-02-2021 17.2 (14:20) 11.4 (22:40) 14.3 8.33 (11:10) 5.28 (14:40) 0 0 0 0 0
25-02-2021 17.6 (13:30) 8.6 (00:00) 13.1 6.11 (13:40) 3.06 (14:30) 0 0 0 0 0
24-02-2021 18 (13:50) 9.6 (00:00) 13.8 9.44 (02:30) 5.83 (02:30) 0 0 0 0 0
23-02-2021 17 (15:30) 8.7 (00:00) 12.8 9.72 (16:00) 6.11 (17:00) 0 0 0 0 0
22-02-2021 17.3 (10:30) 9.3 (00:00) 13.3 10 (00:10) 5.83 (00:20) 0 0 0 0 0
21-02-2021 17.5 (14:40) 12.6 (00:00) 15.1 11.94 (03:20) 7.22 (03:00) 0 0 0 0 0
20-02-2021 17 (14:00) 11.1 (00:00) 14.1 7.22 (22:00) 4.44 (20:30) 0 0 0 0 0
19-02-2021 20.9 (13:40) 8.8 (00:00) 14.8 6.11 (14:40) 4.17 (14:40) 0 0 0 0 0
18-02-2021 16.8 (15:00) 5.9 (00:00) 11.3 5.83 (11:10) 3.61 (11:10) 0 0 0 0 0
17-02-2021 19.5 (13:30) 4.5 (00:00) 12 7.22 (12:50) 4.17 (12:50) 0 0 0 0 0
16-02-2021 17.7 (14:40) 5.3 (00:00) 11.5 9.44 (15:00) 5.28 (10:50) 0 0 0 0 0
15-02-2021 16 (14:50) 6.7 (00:00) 11.3 6.94 (15:30) 3.89 (15:10) 0 0 0 0 0
14-02-2021 17.7 (12:40) 7.2 (00:00) 12.5 8.33 (10:20) 5.28 (10:30) 0 0 0 0 0
13-02-2021 22.5 (13:20) 10.8 (00:00) 16.7 14.17 (03:30) 8.33 (03:30) 0 0 0 0 0
12-02-2021 24.6 (13:50) 12.2 (00:00) 18.4 15.28 (17:20) 8.33 (17:00) 0 0 0 0 0
11-02-2021 22.9 (13:50) 6.2 (00:00) 14.5 6.11 (14:10) 3.61 (14:10) 0 0 0 0 0
10-02-2021 22.2 (15:50) 8 (00:00) 15.1 15.56 (12:30) 7.78 (12:50) 0 0 0 0 0
09-02-2021 16.2 (12:20) 9.9 (00:00) 13.1 10.83 (16:20) 5.83 (16:20) 0 0 0 0 0
08-02-2021 20.4 (16:20) 7.9 (00:00) 14.1 15.28 (17:00) 7.78 (17:10) 0 0 0 0 0
07-02-2021 19.3 (16:20) 9.1 (00:00) 14.2 12.78 (17:00) 6.39 (16:10) 0 0 0 0 0
06-02-2021 20.2 (13:50) 9.6 (00:00) 14.9 14.44 (00:30) 7.78 (00:40) 0 0 0 0 0
05-02-2021 16.6 (13:10) 10.2 (00:00) 13.4 13.61 (23:59) 6.94 (23:50) 0 0 0 0 0
04-02-2021 19.6 (14:30) 6.8 (00:00) 13.2 9.17 (23:30) 5.28 (23:20) 0 0 0 0 0
03-02-2021 20 (15:00) 5.8 (00:00) 12.9 4.72 (14:20) 3.33 (23:10) 0 0 0 0 0
02-02-2021 24 (12:50) 9.1 (00:00) 16.6 13.06 (03:50) 7.22 (03:50) 0 0 0 0 0
01-02-2021 25.3 (15:00) 13.2 (00:00) 19.2 16.67 (07:40) 9.17 (09:00) 0 0 0 0 0
31-01-2021 22.1 (16:10) 13.7 (00:00) 17.9 18.06 (02:50) 8.89 (10:10) 0 0 0 0 0

Gráficas

Temp. máximas Temp. mínimas Temp. medias Precipitaciones Rachas de viento máximas Velocidades máximas media en intervalos de 10 minutos

Datos horarios

Fecha y hora oficial Temperatura (ºC) Velocidad del viento (km/h) Dirección del viento Racha (km/h) Dirección de racha Precipitación (mm) Presión (hPa) Tendencia (hPa) Humedad (%)
2021-03-01 23:00:00 13.9 15 Norte 31 Nordeste 0 1022.9 1.3 83
2021-03-01 22:00:00 13.9 14 Norte 30 Nordeste 0 1022.7 1.2 79
2021-03-01 21:00:00 13.9 17 Nordeste 33 Nordeste 0 1022.5 1.8 78
2021-03-01 20:00:00 14 17 Norte 37 Nordeste 0 1021.6 0.7 78
2021-03-01 19:00:00 14 21 Nordeste 36 Norte 0 1021.5 0.8 74
2021-03-01 18:00:00 14.2 22 Norte 36 Nordeste 0 1020.7 -0.2 73
2021-03-01 17:00:00 14.7 19 Nordeste 37 Nordeste 0 1020.9 -0.8 69
2021-03-01 16:00:00 14.8 23 Nordeste 34 Nordeste 0 1020.7 -1.7 70
2021-03-01 15:00:00 15.2 21 Nordeste 37 Nordeste 0 1020.9 -- 70
2021-03-01 14:00:00 14.8 21 Nordeste 35 Nordeste 0 1021.7 -- 69
2021-03-01 13:00:00 14.9 21 Nordeste 35 Nordeste 0 1022.4 -- 68
2021-03-01 12:00:00 14.8 21 Nordeste 35 Nordeste 0 1022.6 -- 68
2021-03-01 11:00:00 14.5 19 Nordeste 37 Nordeste 0 1022.4 -- 69
2021-03-01 10:00:00 14.1 20 Nordeste 39 Nordeste 0 1022.3 -- 70
2021-03-01 09:00:00 14 23 Nordeste 36 Nordeste 0 1022.1 -- 72
2021-03-01 08:00:00 13.9 21 Nordeste 40 Nordeste 0 1021.8 -- 73
2021-03-01 07:00:00 13.9 16 Nordeste 31 Nordeste 0 1021.4 -- 71
2021-03-01 06:00:00 13.8 18 Nordeste 31 Nordeste 0 1021.3 -- 74
2021-03-01 05:00:00 13.8 17 Nordeste 26 Nordeste 0 1021.3 -- 71
2021-03-01 04:00:00 13.8 17 Nordeste 30 Nordeste 0 1021.5 -- 71
2021-03-01 03:00:00 13.9 14 Nordeste 26 Nordeste 0 1021.8 -- 71
2021-03-01 02:00:00 13.5 10 Nordeste 21 Norte 0 1022 -- 73
2021-03-01 01:00:00 13.5 12 Norte 28 Norte 0 1022.2 -- 80
2021-03-01 00:00:00 13.3 13 Nordeste 27 Nordeste 0 1022.4 -- 80
2021-02-28 23:00:00 13.6 16 Nordeste 28 Nordeste 0 1022.5 -- 76
2021-02-28 22:00:00 13.6 17 Nordeste 32 Nordeste 0 1022.3 -- 77
2021-02-28 21:00:00 13.5 14 Nordeste 28 Nordeste 0 1022 -- 76
2021-02-28 20:00:00 13.6 15 Nordeste 28 Nordeste 0 1021.8 -- 73
2021-02-28 19:00:00 13.7 15 Nordeste 26 Norte 0 1021.6 -- 72
2021-02-28 18:00:00 14.2 12 Nordeste 26 Nordeste 0 1021.4 -- 66
2021-02-28 17:00:00 15.4 13 Nordeste 24 Nordeste 0 1021.3 -- 65
2021-02-28 16:00:00 15.5 12 Nordeste 23 Nordeste 0 1021.5 -- 64
2021-02-28 15:00:00 16.3 11 Nordeste 23 Este 0 1021.8 -- 62
2021-02-28 14:00:00 16 11 Nordeste 21 Este 0 1022.3 -- 62
2021-02-28 13:00:00 16.9 13 Nordeste 24 Nordeste 0 1023.1 -- 59
2021-02-28 12:00:00 16.3 12 Nordeste 21 Nordeste 0 1023.3 -- 59
2021-02-28 11:00:00 14.7 9 Nordeste 22 Nordeste 0 1023.3 -- 65
2021-02-28 10:00:00 14.1 10 Nordeste 19 Este 0 1023 -- 69
2021-02-28 09:00:00 12.2 7 Nordeste 18 Nordeste 0 1022.8 -- 88
2021-02-28 08:00:00 10.5 4 Sudeste 9 Oeste 0 1022.3 -- 91
2021-02-28 07:00:00 10.4 4 Sudoeste 11 Oeste 0 1022.2 -- 90
2021-02-28 06:00:00 9.9 7 Sudoeste 9 Oeste 0 1022.2 -- 88
2021-02-28 05:00:00 10.8 6 Oeste 12 Oeste 0 1022 -- 87
2021-02-28 04:00:00 10.3 5 Sudoeste 9 Sudoeste 0 1022.3 -- 84
2021-02-28 03:00:00 10.7 8 Oeste 21 Sur 0 1022.7 -- 85
2021-02-28 02:00:00 9.8 8 Sudoeste 12 Oeste 0 1022.9 -- 87
2021-02-28 01:00:00 9.5 8 Oeste 12 Oeste 0 1023.1 -- 85
2021-02-28 00:00:00 9.7 9 Sudoeste 13 Sudoeste 0 1023.1 -- 86
2021-02-27 23:00:00 9.4 4 Sudoeste 12 Sur 0 1023.1 -- 86
2021-02-27 22:00:00 8.4 8 Sudoeste 11 Sudoeste 0 1022.9 -- 87
2021-02-27 21:00:00 8.3 8 Oeste 10 Oeste 0 1022.6 -- 84
2021-02-27 20:00:00 10.7 2 Sudoeste 9 Nordeste 0 1022.6 -- 76
2021-02-27 19:00:00 12.6 4 Este 17 Este 0 1022.5 -- 69
2021-02-27 18:00:00 14.1 8 Nordeste 16 Este 0 1022.4 -- 63
2021-02-27 17:00:00 15.4 9 Este 20 Nordeste 0 1022.6 -- 59
2021-02-27 16:00:00 15.8 9 Nordeste 20 Este 0 1023 -- 58
2021-02-27 15:00:00 16 9 Nordeste -- -- -- 1023.6 -- 56
2021-02-27 14:00:00 16.3 11 Nordeste 23 Norte 0 1024.4 -- 55
2021-02-27 13:00:00 16.2 10 Nordeste 23 Este 0 1025.1 -- 56
2021-02-27 12:00:00 16.3 10 Este 21 Este 0 1025.6 -- 54
2021-02-27 11:00:00 16 8 Este 21 Norte 0 1025.9 -- 55
2021-02-27 10:00:00 14.1 10 Nordeste 19 Nordeste 0 1025.9 -- 61
2021-02-27 09:00:00 12.6 5 Norte 17 Norte 0 1025.8 -- 70
2021-02-27 08:00:00 11.8 9 Norte 18 Norte 0 1025.4 -- 73
2021-02-27 07:00:00 11.2 6 Norte 21 Norte 0 1025.4 -- 73
2021-02-27 06:00:00 11.1 7 Norte 13 Norte 0 1025.5 -- 73
2021-02-27 05:00:00 10.9 6 Norte 18 Norte 0 1025.6 -- 75
2021-02-27 04:00:00 11.7 9 Norte 19 Noroeste 0 1025.9 -- 73
2021-02-27 03:00:00 11.7 7 Norte 14 Norte 0 1026.5 -- 75
2021-02-27 02:00:00 11.5 6 Norte 11 Noroeste 0 1027 -- 80
2021-02-27 01:00:00 10.7 6 Noroeste 10 Noroeste 0 1027.3 -- 79
2021-02-27 00:00:00 11.6 3 Oeste 13 Nordeste 0 1027.7 -- 71
2021-02-26 23:00:00 11.9 6 Nordeste 15 Nordeste 0 1028 -- 68
2021-02-26 22:00:00 12 6 Norte 22 Nordeste 0 1027.8 -- 66
2021-02-26 21:00:00 12.3 9 Nordeste 22 Nordeste 0 1027.5 -- 66
2021-02-26 20:00:00 13 10 Nordeste 24 Nordeste 0 1027.6 -- 67
2021-02-26 19:00:00 13.3 11 Norte 21 Nordeste 0 1027.4 -- 65
2021-02-26 18:00:00 14 12 Norte 24 Nordeste 0 1027.5 -- 68
2021-02-26 17:00:00 15.6 12 Norte 26 Norte 0 1027.4 -- 66
2021-02-26 16:00:00 14.9 14 Norte 30 Nordeste 0 1027.8 -- 65
2021-02-26 15:00:00 16.5 14 Norte 29 Norte 0 1028.3 -- 60
2021-02-26 14:00:00 16.4 14 Nordeste 27 Nordeste 0 1028.8 -- 56
2021-02-26 13:00:00 15.4 17 Nordeste 30 Norte 0 1029.5 -- 65
2021-02-26 12:00:00 15.2 12 Nordeste 30 Norte 0 1029.9 -- 68
2021-02-26 11:00:00 14.3 16 Norte 27 Nordeste 0 1029.9 -- 72
2021-02-26 10:00:00 14.3 13 Norte 21 Norte 0 1029.7 -- 74
2021-02-26 09:00:00 13.9 11 Norte 20 Nordeste 0 1029.3 -- 67
2021-02-26 08:00:00 13.4 10 Norte 19 Norte 0 1028.8 -- 75
2021-02-26 07:00:00 13.4 10 Norte 19 Norte 0 1028.7 -- 75
2021-02-26 06:00:00 13.4 8 Norte 20 Nordeste 0 1028.6 -- 73
2021-02-26 05:00:00 13.4 11 Norte 23 Nordeste 0 1028.5 -- 70
2021-02-26 04:00:00 13 7 Norte 18 Nordeste 0 1028.8 -- 74
2021-02-26 03:00:00 13.3 12 Norte 22 Nordeste 0 1029 -- 81
2021-02-26 02:00:00 13.2 11 Noroeste 19 Noroeste 0 1029.2 -- 83
2021-02-26 01:00:00 13.2 11 Noroeste 18 Noroeste 0 1029.6 -- 83
2021-02-26 00:00:00 13.3 8 Noroeste 17 Noroeste 0 1029.8 -- 80
2021-02-25 23:00:00 13.4 8 Norte 13 Norte 0 1029.7 -- 79
2021-02-25 22:00:00 13 4 Norte 9 Norte 0 1029.5 -- 74
2021-02-25 21:00:00 13.9 5 Nordeste 14 Norte 0 1029.2 -- 70
2021-02-25 20:00:00 14.2 6 Nordeste 13 Nordeste 0 1029 -- 70
2021-02-25 19:00:00 14.4 6 Nordeste 13 Nordeste 0 1028.5 -- 77
2021-02-25 18:00:00 14.9 6 Nordeste 13 Nordeste 0 1028.2 -- 74
2021-02-25 17:00:00 16 6 Nordeste 15 Este 0 1028.2 -- 70
2021-02-25 16:00:00 16.7 9 Nordeste 18 Nordeste 0 1028.4 -- 64
2021-02-25 15:00:00 16.9 9 Nordeste 19 Nordeste 0 1028.9 -- 63
2021-02-25 14:00:00 17.2 9 Nordeste 22 Nordeste 0 1029.4 -- 62
2021-02-25 13:00:00 16.8 11 Nordeste 19 Nordeste 0 1030 -- 64
2021-02-25 12:00:00 16 8 Norte 16 Norte 0 1030.6 -- 69
2021-02-25 11:00:00 16.5 8 Noroeste 15 Noroeste 0 1030.8 -- 69
2021-02-25 10:00:00 12.5 4 Oeste 11 Sudoeste 0 1030.9 -- 87
2021-02-25 09:00:00 10.7 7 Sudoeste 13 Oeste 0 1030.3 -- 92
2021-02-25 08:00:00 8.6 7 Sudoeste 12 Oeste 0 1029.7 -- 90
2021-02-25 07:00:00 10.2 6 Oeste 11 Oeste 0 1029.6 -- 89
2021-02-25 06:00:00 9.9 7 Sudoeste 13 Sudoeste 0 1029.6 -- 87
2021-02-25 05:00:00 10.3 8 Sudoeste 13 Oeste 0 1029.7 -- 84
2021-02-25 04:00:00 10.1 7 Sudoeste 12 Oeste 0 1029.8 -- 84
2021-02-25 03:00:00 10.3 6 Sudoeste 13 Oeste 0 1030.2 -- 86
2021-02-25 02:00:00 9.8 7 Oeste 11 Oeste 0 1030.4 -- 89
2021-02-25 01:00:00 9.6 8 Sudoeste 13 Oeste 0 1031 -- 89
2021-02-25 00:00:00 9.6 7 Sudoeste 12 Oeste 0 1031.4 -- 90
2021-02-24 23:00:00 10 7 Oeste 12 Oeste 0 1031.6 -- 92
2021-02-24 22:00:00 9.9 6 Sudoeste 11 Oeste 0 1031.3 -- 90
2021-02-24 21:00:00 10.9 4 Sudoeste 10 Norte 0 1031 -- 84
2021-02-24 20:00:00 12.9 6 Norte 15 Nordeste 0 1031 -- 85
2021-02-24 19:00:00 13.5 6 Norte 14 Norte 0 1030.9 -- 82
2021-02-24 18:00:00 14.7 9 Nordeste 16 Nordeste 0 1030.9 -- 74
2021-02-24 17:00:00 15.3 8 Nordeste 21 Nordeste 0 1031.3 -- 72
2021-02-24 16:00:00 17.2 11 Nordeste 23 Nordeste 0 1031.4 -- 63
2021-02-24 15:00:00 17.6 10 Nordeste 21 Nordeste 0 1031.8 -- 59
2021-02-24 14:00:00 17.7 9 Nordeste 18 Nordeste 0 1032.4 -- 59
2021-02-24 13:00:00 17.8 10 Nordeste 21 Nordeste 0 1033.2 -- 62
2021-02-24 12:00:00 17 12 Nordeste 20 Nordeste 0 1034.1 -- 66
2021-02-24 11:00:00 14.2 9 Norte 17 Norte 0 1034.2 -- 86
2021-02-24 10:00:00 13.5 9 Norte 24 Norte 0 1034.2 -- 86
2021-02-24 09:00:00 13 13 Noroeste 24 Noroeste 0 1033.9 -- 87
2021-02-24 08:00:00 12.8 13 Noroeste 22 Noroeste 0 1033.6 -- 89
2021-02-24 07:00:00 12.7 13 Noroeste 23 Noroeste 0 1033.4 -0.1 88
2021-02-24 06:00:00 12.7 16 Noroeste 32 Noroeste 0 1033.2 -0.9 87
2021-02-24 05:00:00 12.8 20 Noroeste 31 Noroeste 0 1033 -- 89
2021-02-24 04:00:00 12.8 18 Noroeste 32 Noroeste 0 1033.5 -- 88
2021-02-24 03:00:00 12.6 17 Noroeste 34 Noroeste 0 1034.1 -- 85
2021-02-24 02:00:00 12.7 18 Noroeste 31 Noroeste 0 1034.4 -0.2 85
2021-02-24 01:00:00 12.6 15 Noroeste 31 Noroeste 0 1034.5 -- 83
2021-02-24 00:00:00 12.2 11 Noroeste 27 Noroeste 0 1034.7 -- 81
2021-02-23 23:00:00 11.2 8 Oeste 13 Oeste 0 1034.6 -- 82
2021-02-23 22:00:00 11.5 6 Oeste 15 Oeste 0 1034.6 -- 83
2021-02-23 21:00:00 12.4 9 Noroeste 22 Noroeste 0 1034.1 1.6 78
2021-02-23 20:00:00 12.5 11 Norte 23 Norte 0 1033.5 -- 84
2021-02-23 19:00:00 12.9 11 Norte 26 Norte 0 1033.1 -- 80
2021-02-23 18:00:00 14.1 17 Norte 32 Norte 0 1032.5 -- 70
2021-02-23 17:00:00 15.2 22 Norte 35 Norte 0 1032 -- 65
2021-02-23 16:00:00 16.4 19 Norte 35 Norte 0 1031.9 -- 63
2021-02-23 15:00:00 16.1 20 Norte 32 Norte 0 1032.2 -- 64
2021-02-23 14:00:00 15 17 Norte 27 Nordeste 0 1032.4 -- 71
2021-02-23 13:00:00 14.7 13 Norte 28 Norte 0 1032.8 -- 76
2021-02-23 12:00:00 15.4 15 Norte 26 Norte 0 1032.9 -- 73
2021-02-23 11:00:00 15.4 16 Norte 27 Norte 0 1032.5 -- 75
2021-02-23 10:00:00 14.3 17 Norte 30 Norte 0 1031.7 -- 79
2021-02-23 09:00:00 14 14 Norte 26 Norte 0 1030.8 -- 85
2021-02-23 08:00:00 12.6 14 Nordeste 27 Nordeste 0 1029.5 -- 89
2021-02-23 07:00:00 12.2 12 Nordeste 21 Nordeste 0 1028.7 -- 90
2021-02-23 06:00:00 10.6 5 Oeste 21 Noroeste 0 1027.9 -- 87
2021-02-23 05:00:00 10.3 8 Noroeste 22 Noroeste 0 1027.2 -- 88
2021-02-23 04:00:00 9.2 9 Sudoeste 14 Sudoeste 0 1026.5 -- 83
2021-02-23 03:00:00 9.7 9 Sudoeste 29 Oeste 0 1026 -- 79
2021-02-23 02:00:00 10.4 8 Oeste 16 Oeste 0 1025.4 -- 82
2021-02-23 01:00:00 11.2 5 Noroeste 25 Oeste 0 1024.7 -- 75
2021-02-23 00:00:00 11.9 10 Oeste 22 Noroeste 0 1024.3 -- 76
2021-02-22 23:00:00 12.1 8 Oeste 32 Noroeste 0 1023.8 -- 76
2021-02-22 22:00:00 12.1 15 Noroeste 23 Noroeste 0 1023 -- 84
2021-02-22 21:00:00 9.7 7 Sudoeste 13 Sudoeste 0 1022 -- 79
2021-02-22 20:00:00 10.1 5 Oeste 10 Oeste 0 1021.1 -- 75
2021-02-22 19:00:00 12.7 3 Nordeste 6 Nordeste 0 1019.6 -- 62
2021-02-22 18:00:00 14.6 3 Este 12 Este 0 1018.4 -- 56
2021-02-22 17:00:00 14.6 5 Este 16 Este 0 1017.7 -- 57
2021-02-22 16:00:00 14.7 5 Sudeste 22 Este 0 1016.8 -- 53
2021-02-22 15:00:00 15 9 Este 19 Este 0 1016.3 -- 53
2021-02-22 14:00:00 16.7 8 Sudeste 23 Noroeste 0 1015.7 -- 42
2021-02-22 13:00:00 17.3 11 Noroeste 26 Oeste 0 1015.4 -- 37
2021-02-22 12:00:00 16.4 11 Oeste 27 Noroeste 0 1015.6 -- 40
2021-02-22 11:00:00 16.3 12 Oeste 28 Noroeste 0 1015.2 -- 43
2021-02-22 10:00:00 15.7 5 Sudoeste 17 Oeste 0 1014.6 -- 46
2021-02-22 09:00:00 11.9 9 Oeste 23 Oeste 0 1013.8 -- 58
2021-02-22 08:00:00 10 9 Sudoeste 23 Oeste 0 1012.7 -- 63
2021-02-22 07:00:00 12.7 11 Oeste 34 Noroeste 0 1011.7 1.6 52
2021-02-22 06:00:00 12.1 12 Noroeste 22 Noroeste 0 1011.4 -- 57
2021-02-22 05:00:00 10.4 6 Oeste 12 Sudoeste 0 1010.8 -- 90
2021-02-22 04:00:00 10.4 2 Oeste 5 Sudoeste 0 1010.1 -- 84
2021-02-22 03:00:00 12.6 0 Calma 21 Oeste 0 1009.1 -- 80
2021-02-22 02:00:00 13.6 7 Sur 32 Sudoeste 0 1008.6 -- 79
2021-02-22 01:00:00 13.7 15 Sudoeste 36 Sudoeste 0 1007.7 -- 81
2021-02-22 00:00:00 14 15 Sudoeste 33 Sur 0 1007.2 -- 83
2021-02-21 23:00:00 14.5 16 Sur 31 Sur 0 1006.5 -- 87
2021-02-21 22:00:00 14.2 5 Sudoeste 26 Oeste 0 1006.5 2.2 82
2021-02-21 21:00:00 14.1 15 Oeste 26 Oeste 0 1006 -- 83
2021-02-21 20:00:00 14.8 6 Oeste 19 Oeste 0 1005.1 -- 78
2021-02-21 19:00:00 14.9 10 Oeste 23 Oeste 0 1004.3 -- 77
2021-02-21 18:00:00 15.4 8 Oeste 28 Oeste 0 1003.7 -- 77
2021-02-21 17:00:00 15.8 10 Oeste 28 Oeste 0 1003.6 -- 74
2021-02-21 16:00:00 16.2 8 Oeste 28 Noroeste 0 1003.8 -- 71
2021-02-21 15:00:00 17.2 16 Noroeste 34 Noroeste 0 1004.1 -- 68
2021-02-21 14:00:00 16.7 14 Noroeste 35 Norte 0 1005.2 -- 71
2021-02-21 13:00:00 17.4 16 Noroeste 36 Noroeste 0 1006.6 -- 71
2021-02-21 12:00:00 15 19 Noroeste 36 Norte 0 1007.2 -- 80
2021-02-21 11:00:00 14.5 23 Norte 39 Norte 0 1007.8 -- 82
2021-02-21 10:00:00 14 21 Norte 38 Norte 0 1008.9 -- 84
2021-02-21 09:00:00 13.4 18 Norte 39 Norte 0 1009 -- 86
2021-02-21 08:00:00 13.3 19 Norte 40 Nordeste 0 1009.7 -- 87
2021-02-21 07:00:00 13 18 Norte 36 Norte 0 1010 -- 86
2021-02-21 06:00:00 12.9 22 Norte 42 Norte 0 1010.7 -- 86
2021-02-21 05:00:00 12.9 14 Nordeste 42 Nordeste 0 1011.2 -- 87
2021-02-21 04:00:00 12.8 21 Norte 43 Norte 0 1012.3 -- 89
2021-02-21 03:00:00 12.9 26 Norte 42 Norte 0 1012.9 -- 89
2021-02-21 02:00:00 12.9 22 Norte 35 Norte 0 1013.9 -- 89
2021-02-21 01:00:00 13.2 15 Norte 28 Norte 0 1014.7 -- 89
2021-02-21 00:00:00 12.6 7 Noroeste 23 Norte 0 1015.3 -- 88
2021-02-20 23:00:00 12.7 11 Noroeste 24 Noroeste 0 1015.7 -- 81
2021-02-20 22:00:00 12.9 15 Noroeste 26 Noroeste 0 1015.9 -- 83
2021-02-20 21:00:00 12.9 14 Noroeste 26 Norte 0 1016 -- 83
2021-02-20 20:00:00 13.1 14 Noroeste 22 Noroeste 0 1016.3 -- 80
2021-02-20 19:00:00 13.2 15 Norte 21 Noroeste 0 1016 -- 78
2021-02-20 18:00:00 13.8 11 Nordeste 19 Norte 0 1015.7 -- 73
2021-02-20 17:00:00 14.6 12 Norte 19 Norte 0 1016.3 -- 69
2021-02-20 16:00:00 16.1 6 Nordeste 21 Nordeste 0 1016.6 -- 63
2021-02-20 15:00:00 16.3 9 Nordeste 18 Nordeste 0 1017.3 -- 60
2021-02-20 14:00:00 17 8 Este 22 Nordeste 0 1018 -- 59
2021-02-20 13:00:00 15.6 10 Nordeste 18 Nordeste 0 1018.9 -- 64
2021-02-20 12:00:00 15.3 6 Este 14 Este 0 1019.6 -- 65
2021-02-20 11:00:00 14.7 8 Nordeste 14 Nordeste 0 1019.4 -- 68
2021-02-20 10:00:00 13.6 5 Nordeste 12 Nordeste 0 1019.5 -- 73
2021-02-20 09:00:00 12 0 Calma 6 Oeste 0 1019.2 0.8 86
2021-02-20 08:00:00 11.2 4 Oeste 7 Oeste 0 1018.7 -- 87
2021-02-20 07:00:00 11.2 5 Oeste 8 Oeste 0 1018.4 -- 88
2021-02-20 06:00:00 11.7 2 Este 6 Sudeste 0 1018.4 -- 88
2021-02-20 05:00:00 11.7 0 Calma 5 Sudoeste 0 1018.4 -- 89
2021-02-20 04:00:00 11.4 4 Noroeste 5 Noroeste 0 1018.2 -1 90
2021-02-20 03:00:00 11.1 2 Sudoeste 5 Sudoeste 0 1018.6 -- 89
2021-02-20 02:00:00 11.4 0 Calma 5 Este 0 1019.1 -- 88
2021-02-20 01:00:00 12.4 4 Nordeste 7 Nordeste 0 1019.2 -- 87
2021-02-20 00:00:00 12.6 5 Sur 7 Noroeste 0 1019.5 -- 85
2021-02-19 23:00:00 13.1 3 Noroeste 13 Sudoeste 0 1019.5 0.9 86
2021-02-19 22:00:00 12.9 4 Oeste 16 Oeste 0 1019.3 -- 88
2021-02-19 21:00:00 12.9 9 Sudoeste 20 Sudoeste 0 1018.7 -- 89
2021-02-19 20:00:00 12.8 7 Sudoeste 20 Sudoeste 0 1018.6 -- 86
2021-02-19 19:00:00 13.6 8 Sudoeste 17 Sudoeste 0 1018.1 -- 80
2021-02-19 18:00:00 16.1 12 Sudoeste 21 Sudoeste 0 1018 -- 66
2021-02-19 17:00:00 18.6 13 Sudoeste 21 Sudoeste 0 1018 -1.3 55
2021-02-19 16:00:00 19.3 12 Sur 22 Sudoeste 0 1018.1 -- 52
2021-02-19 15:00:00 19.8 8 Sudoeste 22 Sudoeste 0 1018.6 -- 53
2021-02-19 14:00:00 20.6 10 Sur 18 Sur 0 1019.3 -- 50
2021-02-19 13:00:00 19.5 7 Sudoeste 16 Sudoeste 0 1020.1 -- 53
2021-02-19 12:00:00 18.9 5 Norte 14 Norte 0 1020.7 -- 56
2021-02-19 11:00:00 16.1 8 Sur 18 Sur 0 1020.8 -- 69
2021-02-19 10:00:00 13.6 10 Sudoeste 17 Sudoeste 0 1020.7 -- 82
2021-02-19 09:00:00 10.7 4 Sudoeste 9 Sudoeste 0 1020.3 -- 94
2021-02-19 08:00:00 9.2 3 Oeste 8 Sur 0 1020 -- 93
2021-02-19 07:00:00 10.1 3 Oeste 7 Oeste 0 1019.8 -- 93
2021-02-19 06:00:00 9.8 3 Sudoeste 8 Sudoeste 0 1019.7 -- 93
2021-02-19 05:00:00 9.4 5 Sudoeste 9 Sudoeste 0 1019.3 -- 93
2021-02-19 04:00:00 9.1 6 Oeste 10 Sudoeste 0 1019.3 -- 92
2021-02-19 03:00:00 10 4 Oeste 12 Noroeste 0 1019.3 -- 92
2021-02-19 02:00:00 9.8 3 Oeste 18 Noroeste 0 1019 -- 88
2021-02-19 01:00:00 11.3 3 Oeste 18 Noroeste 0 1019.1 -- 88
2021-02-19 00:00:00 11.6 6 Noroeste 17 Norte 0 1019.3 -- 90
2021-02-18 23:00:00 10.7 3 Oeste 17 Noroeste 0 1019.3 -- 90
2021-02-18 22:00:00 11.5 5 Noroeste 13 Noroeste 0 1019 -- 93
2021-02-18 21:00:00 9 4 Oeste 10 Norte 0 1018.8 -- 86
2021-02-18 20:00:00 10.7 4 Sudeste 7 Sudeste 0 1017.8 -- 83
2021-02-18 19:00:00 12 3 Norte 7 Este 0 1017 -- 77
2021-02-18 18:00:00 14.3 4 Este 13 Nordeste 0 1016.7 -- 69
2021-02-18 17:00:00 15.3 5 Este 13 Nordeste 0 1016.8 -- 65
2021-02-18 16:00:00 16.5 7 Este 17 Norte 0 1016.7 -- 60
2021-02-18 15:00:00 16.8 11 Norte 18 Norte 0 1017 -- 58
2021-02-18 14:00:00 15.7 10 Nordeste 18 Nordeste 0 1017.6 -- 61
2021-02-18 13:00:00 16 9 Nordeste 17 Nordeste 0 1018.3 -- 60
2021-02-18 12:00:00 16.4 9 Norte 21 Noroeste 0 1018.7 -- 58
2021-02-18 11:00:00 15.4 9 Norte 18 Norte 0 1019 -- 66
2021-02-18 10:00:00 11.9 7 Sudoeste 13 Oeste 0 1018.9 -- 84
2021-02-18 09:00:00 9.1 6 Oeste 15 Oeste 0 1018.7 -- 94
2021-02-18 08:00:00 7.8 8 Oeste 17 Oeste 0 1018.3 -- 94
2021-02-18 07:00:00 6 7 Oeste 12 Oeste 0 1018.3 -- 93
2021-02-18 06:00:00 6.2 6 Oeste 10 Oeste 0 1018.4 -- 92
2021-02-18 05:00:00 7 7 Sudoeste 9 Sudoeste 0 1018.4 -- 90
2021-02-18 04:00:00 8.7 4 Oeste 7 Oeste 0 1018.7 -- 86
2021-02-18 03:00:00 11.4 6 Sudoeste 10 Sudoeste 0 1019.3 -- 86
2021-02-18 02:00:00 11.9 3 Oeste 8 Sudoeste 0 1019.7 -- 86
2021-02-18 01:00:00 12 4 Sudoeste 9 Sur 0 1020 -- 87
2021-02-18 00:00:00 12.2 3 Noroeste 13 Noroeste 0 1020.4 -- 86
2021-02-17 23:00:00 12.2 5 Oeste 11 Oeste 0 1020.8 -- 87
2021-02-17 22:00:00 12.1 7 Noroeste 15 Noroeste 0 1020.9 -- 87
2021-02-17 21:00:00 12.1 6 Noroeste 10 Noroeste 0 1020.7 -- 90
2021-02-17 20:00:00 11 4 Sudoeste 6 Sudoeste 0 1020.4 -- 84
2021-02-17 19:00:00 12.9 2 Sur 11 Sudeste 0 1020.1 -- 78
2021-02-17 18:00:00 15.9 6 Sudeste 13 Sudeste 0 1020.1 -- 67
2021-02-17 17:00:00 16.2 6 Este 15 Este 0 1020.6 -- 66
2021-02-17 16:00:00 16.1 9 Este 16 Este 0 1021.2 -- 64
2021-02-17 15:00:00 18.9 6 Sudeste 15 Este 0 1021.4 -- 57
2021-02-17 14:00:00 18.8 6 Nordeste 19 Norte 0 1022.2 -- 57
2021-02-17 13:00:00 18.3 14 Norte 26 Norte 0 1022.9 -- 59
2021-02-17 12:00:00 18.8 5 Oeste 13 Noroeste 0 1023.6 -- 52
2021-02-17 11:00:00 16.7 3 Sudoeste 11 Oeste 0 1023.9 -- 64
2021-02-17 10:00:00 12.6 7 Oeste 11 Oeste 0 1023.8 -- 75
2021-02-17 09:00:00 6.6 5 Sudoeste 10 Sudoeste 0 1023.8 -- 90
2021-02-17 08:00:00 4.7 5 Sudoeste 11 Oeste 0 1023.2 -- 88
2021-02-17 07:00:00 4.9 9 Oeste 13 Oeste 0 1022.5 -- 89
2021-02-17 06:00:00 4.8 8 Sudoeste 12 Oeste 0 1022.4 -- 87
2021-02-17 05:00:00 5.5 4 Oeste 12 Oeste 0 1022.3 -- 88
2021-02-17 04:00:00 4.9 6 Oeste 8 Sudoeste 0 1022.5 -- 88
2021-02-17 03:00:00 6.3 3 Sur 12 Sudoeste 0 1022.7 -- 83
2021-02-17 02:00:00 6.8 8 Oeste 10 Oeste 0 1022.8 -- 87
2021-02-17 01:00:00 8.6 6 Sudoeste 13 Sudoeste 0 1023.3 -- 85
2021-02-17 00:00:00 9.3 7 Oeste 12 Oeste 0 1023.6 -- 83
2021-02-16 23:00:00 10.5 6 Oeste 18 Oeste 0 1023.8 -- 82
2021-02-16 22:00:00 11 7 Oeste 18 Sudoeste 0 1023.7 -- 81
2021-02-16 21:00:00 11.6 12 Sudoeste 23 Sudoeste 0 1023.5 -- 81
2021-02-16 20:00:00 12.1 11 Sudoeste 26 Sudoeste 0 1023.7 -- 78
2021-02-16 19:00:00 12.6 11 Sudoeste 30 Sudoeste 0 1023.7 -- 74
2021-02-16 18:00:00 14.4 14 Sudoeste 34 Sur 0 1023.5 -- 63
2021-02-16 17:00:00 16.2 16 Sudoeste 31 Sur 0 1024 -- 55
2021-02-16 16:00:00 16.7 18 Sudoeste 33 Sudoeste 0 1024.4 -- 54
2021-02-16 15:00:00 17.3 17 Sudoeste 34 Sudoeste 0 1025.1 -- 51
2021-02-16 14:00:00 17.4 16 Sur 30 Sur 0 1026.1 -- 50
2021-02-16 13:00:00 17 14 Sur 30 Sur 0 1027.3 -- 50
2021-02-16 12:00:00 15.8 17 Sudoeste 33 Sudoeste 0 1027.9 -- 52
2021-02-16 11:00:00 14.5 16 Sur 32 Sudoeste 0 1028 -- 59
2021-02-16 10:00:00 12.7 10 Sudoeste 22 Sur 0 1028.3 -- 72
2021-02-16 09:00:00 8 4 Sudoeste 9 Sudoeste 0 1028.3 -- 94
2021-02-16 08:00:00 5.6 0 Calma 7 Oeste 0 1028.6 -- 91
2021-02-16 07:00:00 7.5 4 Oeste 12 Oeste 0 1028.9 -- 91
2021-02-16 06:00:00 7.6 8 Oeste 13 Oeste 0 1029.5 -- 93
2021-02-16 05:00:00 6.3 5 Oeste 11 Oeste 0 1030 -- 92
2021-02-16 04:00:00 6.7 6 Oeste 11 Oeste 0 1030.6 -- 93
2021-02-16 03:00:00 6.1 4 Sudoeste 10 Oeste 0 1031.1 -- 92
2021-02-16 02:00:00 5.8 7 Oeste 10 Oeste 0 1031.7 -- 91
2021-02-16 01:00:00 5.6 5 Oeste 7 Sudoeste 0 1032.3 -- 89
2021-02-16 00:00:00 6.7 3 Oeste 10 Oeste 0 1032.7 -- 84
2021-02-15 23:00:00 8.7 6 Oeste 11 Oeste 0 1033 -- 83
2021-02-15 22:00:00 8.4 4 Noroeste 8 Sudoeste 0 1033.2 -- 81
2021-02-15 21:00:00 9.9 6 Oeste 10 Oeste 0 1033.3 -- 78
2021-02-15 20:00:00 9.9 3 Oeste 8 Sur 0 1033.2 -- 75
2021-02-15 19:00:00 11.8 7 Sur 15 Sur 0 1033.2 -- 69
2021-02-15 18:00:00 14 8 Sur 21 Sur 0 1033 -- 62
2021-02-15 17:00:00 15.3 12 Sudoeste 24 Sur 0 1033 -- 56
2021-02-15 16:00:00 14.8 14 Sur 25 Sur 0 1033.2 -- 58
2021-02-15 15:00:00 15.9 13 Sur 25 Sur 0 1033.4 -- 55
2021-02-15 14:00:00 15.9 11 Sur 24 Sudoeste 0 1033.9 -- 55
2021-02-15 13:00:00 15.3 14 Sur 23 Sur 0 1034.5 -- 57
2021-02-15 12:00:00 14.8 10 Sur 20 Sur 0 1035 -- 60
2021-02-15 11:00:00 13.7 10 Sur 17 Sur 0 1035 -- 62
2021-02-15 10:00:00 13 5 Sur 14 Sur 0 1034.8 -- 67
2021-02-15 09:00:00 12.4 7 Sur 14 Sudeste 0 1034.2 -- 70
2021-02-15 08:00:00 12 6 Sur 12 Sudeste 0 1033.6 -- 74
2021-02-15 07:00:00 11.8 4 Sur 8 Sur 0 1033.3 -- 77
2021-02-15 06:00:00 11.7 2 Sur 7 Sur 0 1033.4 -- 78
2021-02-15 05:00:00 11.5 4 Sur 8 Sur 0 1033.4 -- 79
2021-02-15 04:00:00 11.2 2 Sur 11 Sudeste 0 1033.5 -- 78
2021-02-15 03:00:00 11.9 3 Sudeste 12 Sudeste 0 1033.8 -- 75
2021-02-15 02:00:00 12.3 5 Sudeste 18 Sudeste 0 1033.9 -- 74
2021-02-15 01:00:00 12.9 10 Sudeste 19 Sudeste 0 1033.9 -- 73
2021-02-15 00:00:00 13 6 Sudeste 19 Sudeste 0 1033.8 -- 74
2021-02-14 23:00:00 13.2 8 Sudeste 20 Sudeste 0 1033.7 -- 73
2021-02-14 22:00:00 13.4 6 Sudeste 18 Sudeste 0 1033.4 -- 69
2021-02-14 21:00:00 13.5 5 Sudeste 15 Este 0 1033.2 -- 69
2021-02-14 20:00:00 13.5 6 Sudeste 18 Este 0 1032.9 -- 68
2021-02-14 19:00:00 13.8 5 Sudeste 16 Sudeste 0 1032.4 1.3 72
2021-02-14 18:00:00 14.5 8 Este 21 Este 0 1031.9 1.1 70
2021-02-14 17:00:00 15.4 8 Este 18 Este 0 1031.6 -- 68
2021-02-14 16:00:00 17 9 Este 19 Este 0 1031.1 -- 62
2021-02-14 15:00:00 15.7 10 Este 22 Nordeste 0 1030.8 -- 67
2021-02-14 14:00:00 17 9 Nordeste 24 Norte 0 1030.9 -- 62
2021-02-14 13:00:00 17.5 10 Norte 27 Noroeste 0 1031.1 -- 60
2021-02-14 12:00:00 16.6 18 Norte 28 Norte 0 1031.1 -- 63
2021-02-14 11:00:00 16 18 Norte 30 Noroeste 0 1030.5 -- 65
2021-02-14 10:00:00 15.2 10 Noroeste 17 Norte 0 1029.6 -- 70
2021-02-14 09:00:00 10.9 10 Sudoeste 15 Sudoeste 0 1028.9 -- 84
2021-02-14 08:00:00 9.1 9 Oeste 14 Sudoeste 0 1028 -- 85
2021-02-14 07:00:00 9.2 9 Sudoeste 19 Sudoeste 0 1027.3 -- 82
2021-02-14 06:00:00 9.3 9 Sudoeste 15 Oeste 0 1026.7 -- 83
2021-02-14 05:00:00 8.6 10 Sudoeste 14 Sudoeste 0 1026.2 -- 84
2021-02-14 04:00:00 7.6 8 Oeste 12 Oeste 0 1026.1 -- 84
2021-02-14 03:00:00 8.2 8 Oeste 13 Oeste 0 1025.9 -- 78
2021-02-14 02:00:00 8.5 9 Sudoeste 12 Sudoeste 0 1025.7 -- 73
2021-02-14 01:00:00 9 6 Sudoeste 10 Sudoeste 0 1025.2 -- 72
2021-02-14 00:00:00 10.8 0 Calma 11 Sudoeste 0 1025 -- 62
2021-02-13 23:00:00 12.3 6 Sudoeste 13 Sudoeste 0 1024.8 -- 56
2021-02-13 22:00:00 13.2 5 Sudoeste 21 Oeste 0 1024.6 -- 54
2021-02-13 21:00:00 13.4 7 Oeste 18 Sudoeste 0 1024.1 -- 61
2021-02-13 20:00:00 13.8 7 Oeste 14 Oeste 0 1024.1 -- 63
2021-02-13 19:00:00 14.2 6 Sudoeste 19 Sudoeste 0 1023.4 -- 61
2021-02-13 18:00:00 16.6 8 Sudoeste 17 Sudoeste 0 1022.7 -- 53
2021-02-13 17:00:00 19.1 11 Sur 26 Sur 0 1022.6 -- 43
2021-02-13 16:00:00 20.4 12 Sur 24 Sur 0 1022.3 -- 38
2021-02-13 15:00:00 20.8 13 Sur 26 Este 0 1022.3 -- 38
2021-02-13 14:00:00 21.8 14 Norte 26 Norte 0 1022.4 -- 29
2021-02-13 13:00:00 22.2 13 Noroeste 27 Noroeste 0 1022.9 -- 26
2021-02-13 08:00:00 15.7 12 Noroeste 33 Noroeste 0 1021 1.4 38
2021-02-13 07:00:00 15.7 18 Noroeste 34 Noroeste 0 1020.5 1.6 38
2021-02-13 06:00:00 16 21 Noroeste 42 Noroeste 0 1019.9 1 38
2021-02-13 05:00:00 16.3 21 Noroeste 47 Noroeste 0 1019.6 0.8 38
2021-02-13 04:00:00 16.6 25 Noroeste 51 Noroeste 0 1018.9 0.4 37
2021-02-13 03:00:00 16.7 26 Noroeste 46 Noroeste 0 1018.9 0.8 38
2021-02-13 02:00:00 16.7 22 Noroeste 40 Noroeste 0 1018.8 0.7 38
2021-02-13 01:00:00 16.8 16 Oeste 38 Oeste 0 1018.5 0.5 39
2021-02-13 00:00:00 16.7 15 Oeste 44 Oeste 0 1018.1 0.6 39
2021-02-12 23:00:00 17.6 20 Oeste 49 Oeste 0 1018.1 1 37
2021-02-12 22:00:00 18 23 Oeste 49 Oeste 0 1018 1.6 36
2021-02-12 21:00:00 18 20 Oeste 44 Oeste 0 1017.5 1.9 35
2021-02-12 20:00:00 18.1 15 Oeste 31 Noroeste 0 1017.1 2.6 34
2021-02-12 19:00:00 18.8 16 Oeste 41 Oeste 0 1016.4 1.7 32
2021-02-12 18:00:00 20.4 22 Oeste 55 Noroeste 0 1015.6 0.9 27
2021-02-12 17:00:00 22.4 30 Noroeste 50 Noroeste 0 1014.5 -0.6 23
2021-02-12 16:00:00 22.4 20 Oeste 43 Noroeste 0 1014.7 -1.1 26
2021-02-12 15:00:00 24.5 14 Noroeste 34 Oeste 0 1014.7 -1.3 28
2021-02-12 14:00:00 22.9 11 Noroeste 30 Noroeste 0 1015.1 -1 35
2021-02-12 13:00:00 21.7 17 Noroeste 38 Noroeste 0 1015.8 -0.2 42
2021-02-12 12:00:00 22.9 16 Oeste 35 Oeste 0 1016 -0.1 37
2021-02-12 11:00:00 19.8 7 Oeste 23 Noroeste 0 1016.1 0.5 48
2021-02-12 10:00:00 16 5 Sudoeste 10 Sudoeste 0 1016 0.2 72
2021-02-12 09:00:00 12.9 3 Sudoeste 11 Sudoeste 0 1016.1 -- 81
2021-02-12 08:00:00 12.3 9 Sudoeste 13 Oeste 0 1015.6 -- 81
2021-02-12 07:00:00 12.4 8 Oeste 10 Oeste 0 1015.8 -- 81
2021-02-12 06:00:00 12.6 8 Sudoeste 13 Oeste 0 1015.9 -- 79
2021-02-12 05:00:00 13.2 9 Oeste 14 Oeste 0 1015.7 -- 81
2021-02-12 04:00:00 12.9 6 Sudoeste 10 Sudoeste 0 1016.2 -- 76
2021-02-12 03:00:00 13.9 5 Oeste 7 Oeste 0 1016.5 -- 73
2021-02-12 02:00:00 13.4 4 Oeste 9 Oeste 0 1016.8 -- 78
2021-02-12 01:00:00 13.4 5 Oeste 12 Sudoeste 0 1016.8 -- 74
2021-02-12 00:00:00 12.9 10 Sudoeste 13 Sudoeste 0 1017.2 -- 78
2021-02-11 23:00:00 13.2 4 Noroeste 8 Sudoeste 0 1017.6 -- 74
2021-02-11 22:00:00 14.4 3 Oeste 13 Sudoeste 0 1017.6 -- 69
2021-02-11 21:00:00 14.1 5 Oeste 10 Oeste 0 1017.4 -- 70
2021-02-11 20:00:00 15.3 3 Noroeste 11 Oeste 0 1017.1 -- 65
2021-02-11 19:00:00 16.5 3 Norte 8 Norte 0 1016.4 -- 60
2021-02-11 18:00:00 20.1 5 Nordeste 11 Nordeste 0 1016 -- 48
2021-02-11 17:00:00 21.3 5 Norte 12 Nordeste 0 1016 -- 45
2021-02-11 16:00:00 20.9 8 Nordeste 13 Nordeste 0 1016.2 -- 48
2021-02-11 15:00:00 21.3 9 Este 22 Nordeste 0 1016.4 -- 44
2021-02-11 14:00:00 22.3 9 Nordeste 18 Nordeste 0 1016.8 -- 36
2021-02-11 13:00:00 21.2 5 Sudeste 15 Este 0 1017.5 -- 35
2021-02-11 12:00:00 20.6 8 Este 16 Este 0 1018.2 -- 36
2021-02-11 11:00:00 19.4 6 Nordeste 12 Sudoeste 0 1018 -- 38
2021-02-11 10:00:00 14.6 9 Sudoeste 14 Sudoeste 0 1018 -- 51
2021-02-11 09:00:00 9.9 9 Sudoeste 18 Oeste 0 1017.7 -- 63
2021-02-11 08:00:00 6.8 10 Sudoeste 15 Sudoeste 0 1017.3 -- 74
2021-02-11 07:00:00 7.2 7 Sudoeste 17 Oeste 0 1017.2 -- 75
2021-02-11 06:00:00 6.4 8 Sudoeste 13 Sur 0 1017 -- 77
2021-02-11 05:00:00 6.2 6 Oeste 11 Sudoeste 0 1016.7 -- 76
2021-02-11 04:00:00 8.1 2 Sur 16 Sudoeste 0 1016.8 -- 68
2021-02-11 03:00:00 7.3 4 Oeste 11 Sudeste 0 1017 -- 72
2021-02-11 02:00:00 9.1 5 Sudoeste 15 Sudoeste 0 1017 -- 64
2021-02-11 01:00:00 9.3 5 Sudoeste 13 Sur 0 1016.1 -- 63
2021-02-11 00:00:00 10.3 8 Oeste 14 Oeste 0 1015.7 -- 56
2021-02-10 23:00:00 11.7 8 Sudoeste 15 Noroeste 0 1015.5 -- 49
2021-02-10 22:00:00 12.7 8 Sudoeste 26 Oeste 0 1015.5 -- 45
2021-02-10 21:00:00 13.2 6 Sudoeste 19 Oeste 0 1014.6 -- 44
2021-02-10 20:00:00 14.1 6 Oeste 15 Oeste 0 1014 -- 40
2021-02-10 19:00:00 17.4 8 Oeste 25 Oeste 0 1012.5 -- 30
2021-02-10 18:00:00 19.4 12 Oeste 40 Noroeste 0 1011.1 -- 27
2021-02-10 17:00:00 21.4 17 Oeste 45 Oeste 0 1010.1 -- 23
2021-02-10 16:00:00 21.9 22 Oeste 49 Noroeste 0 1009.6 -- 22
2021-02-10 15:00:00 21.9 23 Oeste 46 Noroeste 0 1008.9 -- 23
2021-02-10 14:00:00 21.7 20 Oeste 49 Oeste 0 1008.6 -- 26
2021-02-10 13:00:00 20.7 24 Oeste 56 Noroeste 0 1008.6 -- 25
2021-02-10 12:00:00 20.4 22 Noroeste 50 Noroeste 0 1008.1 -- 30
2021-02-10 11:00:00 19.5 19 Oeste 53 Oeste 0 1007.1 -- 34
2021-02-10 10:00:00 18.2 18 Oeste 52 Oeste 0 1006.9 -- 35
2021-02-10 09:00:00 15 14 Sudoeste 41 Sudoeste 0 1005.9 -- 40
2021-02-10 08:00:00 15.1 19 Sudoeste 37 Sudoeste 0 1004.9 -- 36
2021-02-10 07:00:00 14.9 18 Oeste 41 Oeste 0 1005.5 -- 40
2021-02-10 06:00:00 9.4 8 Oeste 27 Oeste 0 1005 -- 79
2021-02-10 05:00:00 8.5 4 Oeste 12 Sur 0 1004.8 -- 81
2021-02-10 04:00:00 8.3 3 Oeste 12 Sudoeste 0 1005.2 -- 79
2021-02-10 03:00:00 9.9 3 Noroeste 9 Sur 0 1005.6 -- 72
2021-02-10 02:00:00 9.7 4 Norte 11 Sudoeste 0 1005 -- 72
2021-02-10 01:00:00 10.8 2 Nordeste 7 Sudoeste 0 1005.2 -- 67
2021-02-10 00:00:00 12.4 4 Oeste 17 Sur 0 1004.9 -- 61
2021-02-09 23:00:00 14 9 Sudoeste 26 Sudoeste 0 1005 -- 53
2021-02-09 22:00:00 14.6 13 Oeste 23 Oeste 0 1004.6 -- 50
2021-02-09 21:00:00 14.6 6 Oeste 18 Oeste 0 1004.7 -- 49
2021-02-09 20:00:00 14.1 6 Oeste 25 Sudoeste 0 1004.3 -- 51
2021-02-09 19:00:00 13.9 7 Noroeste 23 Sudoeste 0 1003.9 -- 56
2021-02-09 18:00:00 13.9 4 Noroeste 19 Oeste 0 1003.6 -- 58
2021-02-09 17:00:00 14.2 12 Sur 39 Sur 0 1003.9 -- 52
2021-02-09 16:00:00 14.3 18 Sur 35 Sudoeste 0 1004.8 -- 50
2021-02-09 15:00:00 15 7 Sudoeste 28 Sur 0 1005.7 -- 54
2021-02-09 14:00:00 15.3 15 Sur 30 Sur 0 1006.4 -- 47
2021-02-09 13:00:00 15.8 13 Sur 22 Sur 0 1007.6 -- 47
2021-02-09 12:00:00 16 5 Noroeste 11 Noroeste 0 1008.6 -- 47
2021-02-09 11:00:00 15.1 5 Sudoeste 17 Sudoeste 0 1009.1 -- 52
2021-02-09 10:00:00 14.3 5 Oeste 23 Oeste 0 1009.1 -- 47
2021-02-09 09:00:00 13.4 9 Oeste 18 Oeste 0 1009 -- 49
2021-02-09 08:00:00 12.4 8 Noroeste 19 Oeste 0 1008.7 -- 52
2021-02-09 07:00:00 13.1 9 Oeste 21 Oeste 0 1008.8 -- 47
2021-02-09 06:00:00 13.4 8 Sudoeste 26 Oeste 0 1008.3 -- 46
2021-02-09 05:00:00 13.4 12 Oeste 27 Oeste 0 1008.4 -- 45
2021-02-09 04:00:00 10.9 6 Sudoeste 20 Oeste 0 1008.4 -- 51
2021-02-09 03:00:00 10.1 3 Noroeste 16 Oeste 0 1008.1 -- 56
2021-02-09 02:00:00 12.5 10 Noroeste 25 Oeste 0 1007.7 -- 47
2021-02-09 01:00:00 13 14 Oeste 26 Oeste 0 1007.1 -- 44
2021-02-09 00:00:00 12.4 7 Oeste 22 Sudoeste 0 1006.8 -- 48
2021-02-08 23:00:00 14.5 13 Oeste 34 Oeste 0 1006.6 -- 41
2021-02-08 22:00:00 14.8 18 Oeste 34 Noroeste 0 1005.6 -- 41
2021-02-08 21:00:00 13.8 6 Oeste 26 Oeste 0 1005.1 -- 44
2021-02-08 20:00:00 15.5 14 Oeste 34 Oeste 0 1004.5 -- 38
2021-02-08 19:00:00 16 14 Oeste 42 Oeste 0 1003.4 -- 34
2021-02-08 18:00:00 16.8 13 Oeste 52 Oeste 0 1002.1 -- 38
2021-02-08 17:00:00 18.4 27 Oeste 55 Oeste 0 1001.5 -- 30
2021-02-08 16:00:00 20.2 21 Oeste 41 Oeste 0 1001.4 -- 27
2021-02-08 15:00:00 19.2 17 Oeste 41 Oeste 0 1000.9 -- 31
2021-02-08 14:00:00 18 20 Oeste 47 Oeste 0 1001.4 -- 34
2021-02-08 13:00:00 17.6 12 Sudoeste 35 Sudoeste 0 1002.1 -- 43
2021-02-08 12:00:00 17.4 18 Sur 43 Sur 0 1001.8 -- 44
2021-02-08 11:00:00 14.4 6 Oeste 36 Sur 0 1002.5 -- 54
2021-02-08 10:00:00 13.6 11 Sudoeste 33 Sudoeste 0 1002.4 -- 53
2021-02-08 09:00:00 12 7 Oeste 22 Oeste 0 1002.6 -- 60
2021-02-08 08:00:00 9.1 4 Sudoeste 10 Sudoeste 0 1002.3 -- 74
2021-02-08 07:00:00 8 6 Oeste 11 Oeste 0 1003.2 -- 77
2021-02-08 06:00:00 8.3 0 Calma 9 Sudoeste 0 1003.5 -- 73
2021-02-08 05:00:00 9.7 6 Sudoeste 8 Sudeste 0 1003.8 -- 65
2021-02-08 04:00:00 12.5 6 Oeste 21 Noroeste 0 1004.3 -- 52
2021-02-08 03:00:00 12.5 8 Oeste 21 Oeste 0 1005.1 -- 52
2021-02-08 02:00:00 12.7 3 Oeste 15 Oeste 0 1005.2 -- 50
2021-02-08 01:00:00 13.6 8 Oeste 20 Oeste 0 1005.2 -- 45
2021-02-08 00:00:00 13.4 6 Oeste 24 Noroeste 0 1005.3 -- 44
2021-02-07 23:00:00 11.9 6 Sur 15 Oeste 0 1005.5 -- 53
2021-02-07 22:00:00 12.8 6 Oeste 15 Oeste 0 1005.6 -- 49
2021-02-07 21:00:00 13.1 8 Oeste 24 Sudoeste 0 1005.4 -- 46
2021-02-07 20:00:00 13.5 6 Sudoeste 22 Noroeste 0 1005 -- 44
2021-02-07 19:00:00 14.8 14 Noroeste 29 Noroeste 0 1004.4 -- 39
2021-02-07 18:00:00 15.7 16 Noroeste 38 Noroeste 0 1003.9 -- 36
2021-02-07 17:00:00 17.5 17 Oeste 46 Noroeste 0 1003.6 -- 32
2021-02-07 16:00:00 18.3 21 Oeste 39 Noroeste 0 1003.3 -- 33
2021-02-07 15:00:00 15.8 7 Nordeste 19 Este 0 1003.4 -- 56
2021-02-07 14:00:00 18.1 11 Sur 21 Norte 0 1003.8 -- 50
2021-02-07 13:00:00 17.3 10 Noroeste 21 Norte 0 1004.6 -- 53
2021-02-07 12:00:00 15.1 5 Nordeste 14 Norte 0 1005.2 -- 57
2021-02-07 11:00:00 13.2 3 Sudoeste 5 Sudoeste 0 1004.8 -- 70
2021-02-07 10:00:00 11.5 3 Noroeste 9 Sur 0 1004.3 -- 75
2021-02-07 09:00:00 9.9 6 Oeste 8 Oeste 0 1003.8 -- 77
2021-02-07 08:00:00 9.6 2 Noroeste 9 Sudoeste 0 1003.4 -- 72
2021-02-07 07:00:00 10.7 8 Sudoeste 12 Oeste 0 1002.9 -- 67
2021-02-07 06:00:00 11.2 10 Sudoeste 15 Oeste 0 1002.8 -- 64
2021-02-07 05:00:00 11.1 8 Sudoeste 14 Sudoeste 0 1002.8 -- 65
2021-02-07 04:00:00 13.3 8 Oeste 26 Noroeste 0 1002.6 -- 56
2021-02-07 03:00:00 14 6 Oeste 29 Noroeste 0 1002.7 -- 53
2021-02-07 02:00:00 13.4 9 Oeste 23 Oeste 0 1002.5 -- 55
2021-02-07 01:00:00 13 12 Oeste 26 Oeste 0 1002.4 -- 56
2021-02-07 00:00:00 9.6 9 Sudoeste 15 Sudoeste 0 1002.3 -- 74
2021-02-06 23:00:00 11.8 9 Sudoeste 25 Noroeste 0 1002.6 -- 65
2021-02-06 22:00:00 12.1 5 Sudoeste 19 Noroeste 0 1002.4 -- 79
2021-02-06 21:00:00 13 6 Oeste 12 Oeste 0 1002 -- 83
2021-02-06 20:00:00 13.8 5 Oeste 12 Oeste 0 1001.5 -- 81
2021-02-06 19:00:00 14.1 5 Oeste 17 Oeste 0 1001 -- 78
2021-02-06 18:00:00 15.1 11 Sudoeste 28 Sudoeste 0 1000.6 -- 74
2021-02-06 17:00:00 17.3 15 Sudoeste 29 Sudoeste 0 1000.1 -- 62
2021-02-06 16:00:00 17.5 16 Sudoeste 33 Sur 0 1000.1 -- 56
2021-02-06 15:00:00 19.8 13 Sur 36 Sur 0 1000.1 -- 47
2021-02-06 14:00:00 19.8 17 Sur 35 Sur 0 1000.4 -- 44
2021-02-06 13:00:00 19.6 15 Sur 32 Sudoeste 0 1001.2 -- 49
2021-02-06 12:00:00 19.8 11 Sur 24 Sur 0 1001.8 -- 50
2021-02-06 11:00:00 17.5 12 Sudoeste 26 Oeste 0 1001.8 -- 65
2021-02-06 10:00:00 15 11 Sudoeste 27 Sudoeste 0 1001.7 -- 81
2021-02-06 09:00:00 13.2 11 Sudoeste 19 Sudoeste 0 1002.1 -- 88
2021-02-06 08:00:00 12.2 11 Oeste 20 Oeste 0 1001.9 -- 88
2021-02-06 07:00:00 10.9 8 Oeste 17 Oeste 0 1001.4 -- 91
2021-02-06 06:00:00 10.2 5 Oeste 9 Oeste 0 1000.9 -- 90
2021-02-06 05:00:00 11.2 4 Sudoeste 12 Oeste 0 1001.4 -- 87
2021-02-06 04:00:00 12.1 4 Sudoeste 20 Noroeste 0 1001.9 -- 85
2021-02-06 03:00:00 13.1 13 Noroeste 44 Noroeste 0 1002.5 -- 83
2021-02-06 02:00:00 13 19 Noroeste 43 Norte 0 1002.5 -- 89
2021-02-06 01:00:00 13.3 22 Noroeste 52 Noroeste 0 1001.7 -- 84
2021-02-06 00:00:00 13.5 24 Noroeste 49 Noroeste 0 1002.8 -- 82
2021-02-05 23:00:00 13.4 19 Noroeste 41 Noroeste 0 1002.1 -- 84
2021-02-05 22:00:00 13.4 19 Noroeste 40 Noroeste 0 1002.7 -- 84
2021-02-05 21:00:00 13.3 18 Noroeste 41 Noroeste 0 1003.3 -- 85
2021-02-05 20:00:00 13.2 17 Noroeste 35 Noroeste 0 1003.9 -- 85
2021-02-05 19:00:00 13.1 14 Noroeste 38 Noroeste 0 1004 -- 85
2021-02-05 18:00:00 13.4 17 Norte 36 Norte 0 1004.1 -- 82
2021-02-05 17:00:00 14.1 22 Norte 32 Norte 0 1004.6 -- 77
2021-02-05 16:00:00 14.3 16 Norte 33 Norte 0 1005.1 -- 76
2021-02-05 15:00:00 15 19 Norte 35 Norte 0 1005.5 -- 69
2021-02-05 14:00:00 15.5 14 Norte 33 Norte 0 1006.8 -- 70
2021-02-05 13:00:00 16.4 12 Norte 27 Nordeste 0 1007.7 -- 67
2021-02-05 12:00:00 15.5 18 Norte 28 Norte 0 1008.5 -- 71
2021-02-05 11:00:00 14.1 12 Nordeste 22 Norte 0 1008.8 -- 78
2021-02-05 10:00:00 13.4 6 Norte 17 Noroeste 0 1009.1 -- 87
2021-02-05 09:00:00 12 8 Norte 19 Norte 0 1008.9 -- 93
2021-02-05 08:00:00 10.8 5 Sudoeste 18 Noroeste 0 1008.7 -- 91
2021-02-05 07:00:00 10.7 4 Sudeste 10 Sur 0 1008.7 -- 90
2021-02-05 06:00:00 11.3 5 Sur 13 Sudoeste 0 1008.9 -- 90
2021-02-05 05:00:00 11.8 5 Sur 21 Noroeste 0 1009.1 -- 87
2021-02-05 04:00:00 12.4 8 Noroeste 19 Noroeste 0 1009.5 -- 85
2021-02-05 03:00:00 12.8 9 Noroeste 19 Oeste 0 1009.8 -- 84
2021-02-05 02:00:00 12.9 7 Noroeste 24 Noroeste 0 1010.4 -- 83
2021-02-05 01:00:00 12.7 11 Noroeste 30 Noroeste 0 1011.4 -- 82
2021-02-05 00:00:00 12.6 14 Norte 33 Norte 0 1010.5 -- 84
2021-02-04 23:00:00 12.7 16 Noroeste 32 Noroeste 0 1010.2 -- 86
2021-02-04 22:00:00 12.6 13 Noroeste 27 Noroeste 0 1010.1 -- 87
2021-02-04 21:00:00 12.3 10 Oeste 20 Noroeste 0 1010.1 -- 89
2021-02-04 20:00:00 12.3 2 Sudeste 4 Norte 0 1010.2 -- 85
2021-02-04 19:00:00 13.2 2 Norte 14 Sur 0 1009.9 -- 84
2021-02-04 18:00:00 14.2 8 Sur 28 Sur 0 1009.4 -- 79
2021-02-04 17:00:00 15.7 9 Sudoeste 23 Sur 0 1009.1 -- 74
2021-02-04 16:00:00 16.2 12 Sur 28 Sudoeste 0 1009.4 -- 70
2021-02-04 15:00:00 18.3 15 Sudoeste 27 Sudoeste 0 1009.8 -- 61
2021-02-04 14:00:00 18.5 9 Sudeste 17 Sur 0 1010.5 -- 58
2021-02-04 13:00:00 17.2 8 Este 15 Este 0 1011.3 -- 59
2021-02-04 12:00:00 16.6 8 Este 15 Este 0 1011.8 -- 55
2021-02-04 11:00:00 16.4 4 Nordeste 7 Este 0 1012.7 -- 61
2021-02-04 10:00:00 13 3 Sur 8 Oeste 0 1012.8 -- 79
2021-02-04 09:00:00 7.6 3 Sudoeste 8 Sudoeste 0 1012.1 -- 92
2021-02-04 08:00:00 7.5 6 Sudoeste 12 Oeste 0 1011.5 -- 90
2021-02-04 07:00:00 7.4 7 Sudoeste 10 Sudoeste 0 1011.5 -- 90
2021-02-04 06:00:00 8.1 6 Sudoeste 10 Sudoeste 0 1011.5 -- 89
2021-02-04 05:00:00 8.8 7 Sudoeste 12 Sudoeste 0 1011.5 -- 89
2021-02-04 04:00:00 9.3 8 Sudoeste 13 Oeste 0 1011.9 -- 87
2021-02-04 03:00:00 9.3 6 Oeste 11 Noroeste 0 1012.4 -- 84
2021-02-04 02:00:00 10.7 8 Oeste 13 Sudoeste 0 1012.4 -- 82
2021-02-04 01:00:00 11.2 6 Oeste 11 Oeste 0 1012.7 -- 84
2021-02-04 00:00:00 10.8 3 Oeste 15 Oeste 0 1012.5 -- 87
2021-02-03 23:00:00 11.7 9 Sudoeste 14 Sudoeste 0 1012.4 -- 85
2021-02-03 22:00:00 12.6 5 Oeste 11 Oeste 0 1012.7 -- 82
2021-02-03 21:00:00 13.2 7 Oeste 12 Oeste 0 1012.6 -- 80
2021-02-03 20:00:00 13.6 6 Oeste 12 Oeste 0 1012.8 -- 78
2021-02-03 19:00:00 14.3 6 Oeste 12 Oeste 0 1012.1 -- 74
2021-02-03 18:00:00 16.4 4 Sudoeste 10 Oeste 0 1012 -- 57
2021-02-03 17:00:00 17.6 5 Nordeste 10 Nordeste 0 1011.8 -- 56
2021-02-03 16:00:00 18.5 5 Este 14 Este 0 1012.3 -- 49
2021-02-03 15:00:00 20 4 Este 17 Nordeste 0 1012.4 -- 48
2021-02-03 14:00:00 18.8 8 Este 16 Este 0 1012.8 -- 45
2021-02-03 13:00:00 18.2 7 Este 12 Nordeste 0 1013.6 -- 54
2021-02-03 12:00:00 16.8 6 Nordeste 9 Nordeste 0 1014.4 -- 68
2021-02-03 11:00:00 16.8 4 Nordeste 8 Nordeste 0 1014.5 -- 66
2021-02-03 10:00:00 12.9 6 Sudoeste 11 Sudoeste 0 1014.1 -- 75
2021-02-03 09:00:00 7.8 7 Sudoeste 11 Sudoeste 0 1013.8 -- 91
2021-02-03 08:00:00 5.9 8 Sudoeste 14 Sudoeste 0 1013.4 -- 89
2021-02-03 07:00:00 6.4 11 Sudoeste 14 Sudoeste 0 1013.2 -- 88
2021-02-03 06:00:00 8.3 9 Oeste 13 Oeste 0 1013.3 -- 89
2021-02-03 05:00:00 9.5 8 Oeste 13 Oeste 0 1013.3 -- 92
2021-02-03 04:00:00 7.4 6 Sudoeste 13 Sudoeste 0 1013.4 -- 87
2021-02-03 03:00:00 7.5 10 Sudoeste 12 Sudoeste 0 1013.8 -- 87
2021-02-03 02:00:00 8.2 8 Sudoeste 12 Sudoeste 0 1013.9 -- 85
2021-02-03 01:00:00 9.1 10 Sudoeste 13 Oeste 0 1013.8 -- 82
2021-02-03 00:00:00 9.1 8 Sudoeste 12 Oeste 0 1013.9 -- 84
2021-02-02 23:00:00 9.6 3 Oeste 9 Oeste 0 1013.9 -- 81
2021-02-02 22:00:00 11.9 3 Este 12 Oeste 0 1013.9 -- 72
2021-02-02 21:00:00 14 9 Oeste 15 Oeste 0 1013.6 -- 68
2021-02-02 20:00:00 13.8 9 Oeste 14 Oeste 0 1013.6 -- 68
2021-02-02 19:00:00 14.4 5 Oeste 9 Oeste 0 1013.3 -- 67
2021-02-02 18:00:00 17.6 3 Nordeste 14 Nordeste 0 1013.4 -- 59
2021-02-02 17:00:00 18.7 9 Nordeste 17 Este 0 1013.5 -- 50
2021-02-02 16:00:00 19.6 9 Nordeste 15 Nordeste 0 1013.5 -- 50
2021-02-02 15:00:00 20.5 9 Este 17 Este 0 1014 -- 43
2021-02-02 14:00:00 21.9 8 Este 18 Nordeste 0 1014.3 -- 38
2021-02-02 13:00:00 22.3 9 Nordeste 22 Sur 0 1015.2 -- 39
2021-02-02 12:00:00 22.6 7 Sudoeste 19 Sudoeste 0 1015.9 -- 36
2021-02-02 11:00:00 21.9 5 Oeste 26 Oeste 0 1016 -- 36
2021-02-02 10:00:00 18.3 13 Oeste 32 Oeste 0 1016 -- 45
2021-02-02 09:00:00 15.9 8 Sudoeste 18 Oeste 0 1015.5 -- 53
2021-02-02 08:00:00 15.4 9 Sudoeste 25 Oeste 0 1015 -- 52
2021-02-02 07:00:00 17 15 Oeste 38 Sudoeste 0 1014.7 -- 45
2021-02-02 06:00:00 17.3 10 Sudeste 32 Noroeste 0 1013.7 -- 44
2021-02-02 05:00:00 17.6 18 Noroeste 47 Noroeste 0 1013.2 -- 43
2021-02-02 04:00:00 17.9 24 Oeste 47 Oeste 0 1013 -- 41
2021-02-02 03:00:00 17.5 19 Oeste 38 Oeste 0 1013.9 -- 43
2021-02-02 02:00:00 17 14 Oeste 37 Oeste 0 1013.8 -- 44
2021-02-02 01:00:00 16.8 17 Oeste 44 Oeste 0 1013.9 -- 45
2021-02-02 00:00:00 17.7 17 Oeste 45 Noroeste 0 1013.6 -- 42
2021-02-01 23:00:00 18 23 Noroeste 46 Noroeste 0 1013.4 -- 41
2021-02-01 22:00:00 18.2 15 Oeste 39 Oeste 0 1013.2 -- 42
2021-02-01 21:00:00 18.9 23 Noroeste 42 Oeste 0 1012.7 -- 40
2021-02-01 20:00:00 19.7 21 Oeste 45 Noroeste 0 1011.9 -- 37
2021-02-01 19:00:00 20.3 15 Oeste 40 Oeste 0 1011.3 -- 36
2021-02-01 18:00:00 21.7 21 Oeste 50 Oeste 0 1010.3 -- 31
2021-02-01 17:00:00 24 23 Oeste 57 Noroeste 0 1010 -- 27
2021-02-01 16:00:00 24.6 23 Noroeste 57 Oeste 0 1009.1 -- 25
2021-02-01 15:00:00 25.2 19 Noroeste 40 Noroeste 0 1009.1 -- 24
2021-02-01 14:00:00 24.4 22 Noroeste 54 Noroeste 0 1008.9 -- 25
2021-02-01 13:00:00 23.6 31 Noroeste 57 Noroeste 0 1009 -- 25
2021-02-01 12:00:00 23 24 Noroeste 47 Noroeste 0 1009.3 -- 26
2021-02-01 11:00:00 21.6 22 Noroeste 56 Noroeste 0 1008.7 -- 29
2021-02-01 10:00:00 19.9 22 Noroeste 54 Noroeste 0 1008.5 -- 32
2021-02-01 09:00:00 18.4 33 Noroeste 51 Noroeste 0 1007.8 -- 35
2021-02-01 08:00:00 17.6 19 Noroeste 60 Noroeste 0 1007.5 -- 38
2021-02-01 07:00:00 17.9 22 Oeste 50 Oeste 0 1007 -- 39
2021-02-01 06:00:00 18 20 Noroeste 51 Oeste 0 1006.9 -- 40
2021-02-01 05:00:00 18.3 21 Noroeste 47 Noroeste 0 1007 -- 40
2021-02-01 04:00:00 18.6 23 Oeste 49 Oeste 0 1006.5 -- 41
2021-02-01 03:00:00 18.8 22 Oeste 54 Noroeste 0 1007.1 -- 43
2021-02-01 02:00:00 18.5 22 Noroeste 47 Noroeste 0 1007.8 -- 48
2021-02-01 01:00:00 14.2 9 Noroeste 22 Noroeste 0 1008.5 -- 64
2021-02-01 00:00:00 15.5 6 Oeste 17 Oeste 0 1008 -- 58
2021-01-31 23:00:00 14.8 7 Noroeste 18 Oeste 0 1007.9 -- 58
2021-01-31 22:00:00 16.7 6 Oeste 35 Oeste 0 1007.8 -- 52
2021-01-31 21:00:00 18.1 14 Oeste 39 Noroeste 0 1008.1 -- 48
2021-01-31 20:00:00 17.9 19 Oeste 42 Oeste 0 1008 -- 48
2021-01-31 19:00:00 17.5 14 Oeste 38 Oeste 0 1008.2 -- 49
2021-01-31 18:00:00 17.9 18 Oeste 39 Noroeste 0 1007.9 -- 48
2021-01-31 17:00:00 19.5 18 Oeste 39 Oeste 0 1007.7 -- 42
2021-01-31 16:00:00 21.9 16 Oeste 52 Noroeste 0 1007.8 -- 34
2021-01-31 15:00:00 21.1 32 Noroeste 57 Noroeste 0 1008.2 -- 33
2021-01-31 14:00:00 20 20 Oeste 50 Noroeste 0 1008.9 -- 34
2021-01-31 13:00:00 17.4 22 Oeste 54 Noroeste 0 1010 -- 37
2021-01-31 12:00:00 17.1 28 Oeste 48 Oeste 0 1009.9 -- 34
2021-01-31 11:00:00 17 26 Oeste 52 Noroeste 0 1010 -- 35
2021-01-31 10:00:00 15.8 28 Oeste 57 Oeste 0 1009.9 -- 39
2021-01-31 09:00:00 14.6 23 Noroeste 50 Oeste 0 1009.7 -- 41
2021-01-31 08:00:00 13.7 22 Oeste 55 Oeste 0 1009.2 -- 44
2021-01-31 07:00:00 13.9 28 Noroeste 52 Noroeste 0 1009 -- 44
2021-01-31 06:00:00 14.1 24 Noroeste 50 Oeste 0 1008.9 -- 42
2021-01-31 05:00:00 14.2 21 Noroeste 42 Oeste 0 1008.9 -- 41
2021-01-31 04:00:00 14.5 25 Oeste 49 Oeste 0 1009 -- 41
2021-01-31 03:00:00 14.7 22 Oeste 65 Oeste 0 1009 -- 42
2021-01-31 02:00:00 15 19 Noroeste 52 Oeste 0 1009.2 -- 39
2021-01-31 01:00:00 15.5 24 Noroeste 51 Noroeste 0 1009 -- 38
2021-01-31 00:00:00 15.9 24 Oeste 55 Oeste 0 1008.6 -- 37